• Join FlightAware (Why Join?)
  • Login
  • US Flag 
12:35PM EDT


 

Airport Tracker/Info


-or-


 

Live Flight TrackerFlight Track Log ✈ B-2086 ✈ 21-Apr-2013 ✈ ZBAA / PEK - EDDF / FRA

Flight Track Log - Related Links

Times and Time Zones

All times are in EDT time to prevent confusion due to time zone crossing. See the B-2086 flight status page for this flight to view local times or setup timezone preferences in your user account.

Time Position Orientation Groundspeed Altitude Reporting Facility
EDT Latitude Longitude Course Direction KTS MPH feet Rate Location/Type
02:33AM 40.3527 116.2782 319° Northwest  Level Estimated
02:34AM 40.4434 116.1756 319° Northwest  Level Estimated
02:35AM 40.5340 116.0727 319° Northwest  Level Estimated
02:36AM 40.6245 115.9695 319° Northwest  Level Estimated
02:37AM 40.7150 115.8660 319° Northwest  Level Estimated
02:38AM 40.8053 115.7622 319° Northwest  Level Estimated
02:39AM 40.8955 115.6581 319° Northwest  Level Estimated
02:40AM 40.9857 115.5538 319° Northwest  Level Estimated
02:41AM 41.0757 115.4492 319° Northwest  Level Estimated
02:42AM 41.1657 115.3443 319° Northwest  Level Estimated
02:43AM 41.2555 115.2391 319° Northwest  Level Estimated
02:44AM 41.3453 115.1336 319° Northwest  Level Estimated
02:45AM 41.4350 115.0278 319° Northwest  Level Estimated
02:46AM 41.5245 114.9217 318° Northwest  Level Estimated
02:47AM 41.6140 114.8154 318° Northwest  Level Estimated
02:48AM 41.7034 114.7087 318° Northwest  Level Estimated
02:49AM 41.7926 114.6017 318° Northwest  Level Estimated
02:50AM 41.8818 114.4945 318° Northwest  Level Estimated
02:51AM 41.9709 114.3869 318° Northwest  Level Estimated
02:52AM 42.0598 114.2791 318° Northwest  Level Estimated
02:53AM 42.1487 114.1709 318° Northwest  Level Estimated
02:54AM 42.2375 114.0624 318° Northwest  Level Estimated
02:55AM 42.3262 113.9537 318° Northwest  Level Estimated
02:56AM 42.4147 113.8446 318° Northwest  Level Estimated
02:57AM 42.5032 113.7352 318° Northwest  Level Estimated
02:58AM 42.5915 113.6255 318° Northwest  Level Estimated
02:59AM 42.6798 113.5155 318° Northwest  Level Estimated
03:00AM 42.7679 113.4052 317° Northwest  Level Estimated
03:01AM 42.8560 113.2946 317° Northwest  Level Estimated
03:02AM 42.9439 113.1836 317° Northwest  Level Estimated
03:03AM 43.0317 113.0723 317° Northwest  Level Estimated
03:04AM 43.1194 112.9608 317° Northwest  Level Estimated
03:05AM 43.2071 112.8489 317° Northwest  Level Estimated
03:06AM 43.2946 112.7366 317° Northwest  Level Estimated
03:07AM 43.3819 112.6241 317° Northwest  Level Estimated
03:08AM 43.4692 112.5112 317° Northwest  Level Estimated
03:09AM 43.5564 112.3980 317° Northwest  Level Estimated
03:10AM 43.6434 112.2845 317° Northwest  Level Estimated
03:11AM 43.7304 112.1706 317° Northwest  Level Estimated
03:12AM 43.8172 112.0564 317° Northwest  Level Estimated
03:13AM 43.9039 111.9419 316° Northwest  Level Estimated
03:14AM 43.9905 111.8271 316° Northwest  Level Estimated
03:15AM 44.0770 111.7119 316° Northwest  Level Estimated
03:16AM 44.1634 111.5963 316° Northwest  Level Estimated
03:17AM 44.2496 111.4805 316° Northwest  Level Estimated
03:18AM 44.3358 111.3643 316° Northwest  Level Estimated
03:19AM 44.4218 111.2477 316° Northwest  Level Estimated
03:20AM 44.5077 111.1308 316° Northwest  Level Estimated
03:21AM 44.5934 111.0136 316° Northwest  Level Estimated
03:22AM 44.6791 110.8960 316° Northwest  Level Estimated
03:23AM 44.7646 110.7781 316° Northwest  Level Estimated
03:24AM 44.8501 110.6598 316° Northwest  Level Estimated
03:25AM 44.9353 110.5412 315° West  Level Estimated
03:26AM 45.0205 110.4222 315° West  Level Estimated
03:27AM 45.1056 110.3029 315° West  Level Estimated
03:28AM 45.1905 110.1832 315° West  Level Estimated
03:29AM 45.2753 110.0631 315° West  Level Estimated
03:30AM 45.3599 109.9427 315° West  Level Estimated
03:31AM 45.4445 109.8219 315° West  Level Estimated
03:32AM 45.5289 109.7008 315° West  Level Estimated
03:33AM 45.6132 109.5793 315° West  Level Estimated
03:34AM 45.6973 109.4575 315° West  Level Estimated
03:35AM 45.7814 109.3352 315° West  Level Estimated
03:36AM 45.8653 109.2126 315° West  Level Estimated
03:37AM 45.9490 109.0897 314° West  Level Estimated
03:38AM 46.0327 108.9663 314° West  Level Estimated
03:39AM 46.1162 108.8426 314° West  Level Estimated
03:40AM 46.1995 108.7185 314° West  Level Estimated
03:41AM 46.2827 108.5940 314° West  Level Estimated
03:42AM 46.3658 108.4692 314° West  Level Estimated
03:43AM 46.4488 108.3440 314° West  Level Estimated
03:44AM 46.5316 108.2184 314° West  Level Estimated
03:45AM 46.6143 108.0924 314° West  Level Estimated
03:46AM 46.6968 107.9660 314° West  Level Estimated
03:47AM 46.7793 107.8393 314° West  Level Estimated
03:48AM 46.8615 107.7121 313° West  Level Estimated
03:49AM 46.9436 107.5846 313° West  Level Estimated
03:50AM 47.0256 107.4566 313° West  Level Estimated
03:51AM 47.1074 107.3283 313° West  Level Estimated
03:52AM 47.1891 107.1996 313° West  Level Estimated
03:53AM 47.2707 107.0705 313° West  Level Estimated
03:54AM 47.3521 106.9410 313° West  Level Estimated
03:55AM 47.4333 106.8111 313° West  Level Estimated
03:56AM 47.5145 106.6808 313° West  Level Estimated
03:57AM 47.5954 106.5500 313° West  Level Estimated
03:58AM 47.6762 106.4189 312° West  Level Estimated
03:59AM 47.7569 106.2874 312° West  Level Estimated
04:00AM 47.8374 106.1555 312° West  Level Estimated
04:01AM 47.9178 106.0231 312° West  Level Estimated
04:02AM 47.9980 105.8904 312° West  Level Estimated
04:03AM 48.0780 105.7572 312° West  Level Estimated
04:04AM 48.1579 105.6236 312° West  Level Estimated
04:05AM 48.2377 105.4896 312° West  Level Estimated
04:06AM 48.3173 105.3552 312° West  Level Estimated
04:07AM 48.3967 105.2203 312° West  Level Estimated
04:08AM 48.4760 105.0851 312° West  Level Estimated
04:09AM 48.5551 104.9494 311° West  Level Estimated
04:10AM 48.6341 104.8133 311° West  Level Estimated
04:11AM 48.7129 104.6768 311° West  Level Estimated
04:12AM 48.7915 104.5398 311° West  Level Estimated
04:13AM 48.8700 104.4024 311° West  Level Estimated
04:14AM 48.9483 104.2646 311° West  Level Estimated
04:15AM 49.0264 104.1263 311° West  Level Estimated
04:16AM 49.1044 103.9876 311° West  Level Estimated
04:17AM 49.1822 103.8485 311° West  Level Estimated
04:18AM 49.2598 103.7090 310° West  Level Estimated
04:19AM 49.3373 103.5690 310° West  Level Estimated
04:20AM 49.4146 103.4285 310° West  Level Estimated
04:21AM 49.4917 103.2876 310° West  Level Estimated
04:22AM 49.5687 103.1463 310° West  Level Estimated
04:23AM 49.6455 103.0045 310° West  Level Estimated
04:24AM 49.7221 102.8623 310° West  Level Estimated
04:25AM 49.7985 102.7196 310° West  Level Estimated
04:26AM 49.8748 102.5765 310° West  Level Estimated
04:27AM 49.9509 102.4329 310° West  Level Estimated
04:28AM 50.0268 102.2889 309° West  Level Estimated
04:29AM 50.1026 102.1444 309° West  Level Estimated
04:30AM 50.1781 101.9995 309° West  Level Estimated
04:31AM 50.2535 101.8541 309° West  Level Estimated
04:32AM 50.3287 101.7082 309° West  Level Estimated
04:33AM 50.4037 101.5619 309° West  Level Estimated
04:34AM 50.4785 101.4151 309° West  Level Estimated
04:35AM 50.5531 101.2679 309° West  Level Estimated
04:36AM 50.6276 101.1201 309° West  Level Estimated
04:37AM 50.7018 100.9720 308° West  Level Estimated
04:38AM 50.7759 100.8233 308° West  Level Estimated
04:39AM 50.8498 100.6742 308° West  Level Estimated
04:40AM 50.9235 100.5246 308° West  Level Estimated
04:41AM 50.9970 100.3745 308° West  Level Estimated
04:42AM 51.0703 100.2240 308° West  Level Estimated
04:43AM 51.1434 100.0729 308° West  Level Estimated
04:44AM 51.2163 99.9214 308° West  Level Estimated
04:45AM 51.2891 99.7695 307° West  Level Estimated
04:46AM 51.3616 99.6170 307° West  Level Estimated
04:47AM 51.4339 99.4641 307° West  Level Estimated
04:48AM 51.5061 99.3106 307° West  Level Estimated
04:49AM 51.5780 99.1567 307° West  Level Estimated
04:50AM 51.6497 99.0023 307° West  Level Estimated
04:51AM 51.7212 98.8474 307° West  Level Estimated
04:52AM 51.7925 98.6920 307° West  Level Estimated
04:53AM 51.8637 98.5361 306° West  Level Estimated
04:54AM 51.9346 98.3798 306° West  Level Estimated
04:55AM 52.0053 98.2229 306° West  Level Estimated
04:56AM 52.0758 98.0656 306° West  Level Estimated
04:57AM 52.1460 97.9077 306° West  Level Estimated
04:58AM 52.2161 97.7493 306° West  Level Estimated
04:59AM 52.2860 97.5905 306° West  Level Estimated
05:00AM 52.3556 97.4311 306° West  Level Estimated
05:01AM 52.4250 97.2713 306° West  Level Estimated
05:02AM 52.4943 97.1109 305° West  Level Estimated
05:03AM 52.5632 96.9501 305° West  Level Estimated
05:04AM 52.6320 96.7887 305° West  Level Estimated
05:05AM 52.7006 96.6268 305° West  Level Estimated
05:06AM 52.7689 96.4644 305° West  Level Estimated
05:07AM 52.8370 96.3015 305° West  Level Estimated
05:08AM 52.9049 96.1381 305° West  Level Estimated
05:09AM 52.9725 95.9742 304° West  Level Estimated
05:10AM 53.0400 95.8098 304° West  Level Estimated
05:11AM 53.1072 95.6448 304° West  Level Estimated
05:12AM 53.1742 95.4793 304° West  Level Estimated
05:13AM 53.2409 95.3134 304° West  Level Estimated
05:14AM 53.3074 95.1469 304° West  Level Estimated
05:15AM 53.3737 94.9799 304° West  Level Estimated
05:16AM 53.4398 94.8123 304° West  Level Estimated
05:17AM 53.5056 94.6443 303° West  Level Estimated
05:18AM 53.5712 94.4757 303° West  Level Estimated
05:19AM 53.6365 94.3066 303° West  Level Estimated
05:20AM 53.7016 94.1370 303° West  Level Estimated
05:21AM 53.7665 93.9668 303° West  Level Estimated
05:22AM 53.8311 93.7962 303° West  Level Estimated
05:23AM 53.8955 93.6249 303° West  Level Estimated
05:24AM 53.9596 93.4532 302° West  Level Estimated
05:25AM 54.0235 93.2810 302° West  Level Estimated
05:26AM 54.0872 93.1082 302° West  Level Estimated
05:27AM 54.1506 92.9349 302° West  Level Estimated
05:28AM 54.2137 92.7610 302° West  Level Estimated
05:29AM 54.2766 92.5866 302° West  Level Estimated
05:30AM 54.3392 92.4117 302° West  Level Estimated
05:31AM 54.4016 92.2363 301° West  Level Estimated
05:32AM 54.4637 92.0603 301° West  Level Estimated
05:33AM 54.5256 91.8838 301° West  Level Estimated
05:34AM 54.5872 91.7068 301° West  Level Estimated
05:35AM 54.6486 91.5292 301° West  Level Estimated
05:36AM 54.7097 91.3511 301° West  Level Estimated
05:37AM 54.7705 91.1724 301° West  Level Estimated
05:38AM 54.8311 90.9932 300° West  Level Estimated
05:39AM 54.8914 90.8135 300° West  Level Estimated
05:40AM 54.9515 90.6333 300° West  Level Estimated
05:41AM 55.0112 90.4525 300° West  Level Estimated
05:42AM 55.0708 90.2711 300° West  Level Estimated
05:43AM 55.1300 90.0892 300° West  Level Estimated
05:44AM 55.1890 89.9068 300° West  Level Estimated
05:45AM 55.2477 89.7239 299° West  Level Estimated
05:46AM 55.3061 89.5404 299° West  Level Estimated
05:47AM 55.3642 89.3563 299° West  Level Estimated
05:48AM 55.4221 89.1717 299° West  Level Estimated
05:49AM 55.4797 88.9866 299° West  Level Estimated
05:50AM 55.5370 88.8010 299° West  Level Estimated
05:51AM 55.5940 88.6148 299° West  Level Estimated
05:52AM 55.6507 88.4280 298° West  Level Estimated
05:53AM 55.7072 88.2407 298° West  Level Estimated
05:54AM 55.7634 88.0529 298° West  Level Estimated
05:55AM 55.8192 87.8646 298° West  Level Estimated
05:56AM 55.8748 87.6757 298° West  Level Estimated
05:57AM 55.9301 87.4862 298° West  Level Estimated
05:58AM 55.9852 87.2962 297° West  Level Estimated
05:59AM 56.0399 87.1057 297° West  Level Estimated
06:00AM 56.0943 86.9147 297° West  Level Estimated
06:01AM 56.1484 86.7231 297° West  Level Estimated
06:02AM 56.2023 86.5309 297° West  Level Estimated
06:03AM 56.2558 86.3382 297° West  Level Estimated
06:04AM 56.3090 86.1450 296° West  Level Estimated
06:05AM 56.3620 85.9513 296° West  Level Estimated
06:06AM 56.4146 85.7570 296° West  Level Estimated
06:07AM 56.4669 85.5621 296° West  Level Estimated
06:08AM 56.5189 85.3668 296° West  Level Estimated
06:09AM 56.5706 85.1709 296° West  Level Estimated
06:10AM 56.6221 84.9744 296° West  Level Estimated
06:11AM 56.6731 84.7775 295° West  Level Estimated
06:12AM 56.7239 84.5800 295° West  Level Estimated
06:13AM 56.7744 84.3820 295° West  Level Estimated
06:14AM 56.8245 84.1834 295° West  Level Estimated
06:15AM 56.8744 83.9843 295° West  Level Estimated
06:16AM 56.9239 83.7847 295° West  Level Estimated
06:17AM 56.9731 83.5845 294° West  Level Estimated
06:18AM 57.0220 83.3838 294° West  Level Estimated
06:19AM 57.0705 83.1826 294° West  Level Estimated
06:20AM 57.1188 82.9809 294° West  Level Estimated
06:21AM 57.1667 82.7786 294° West  Level Estimated
06:22AM 57.2143 82.5758 294° West  Level Estimated
06:23AM 57.2615 82.3725 293° West  Level Estimated
06:24AM 57.3085 82.1687 293° West  Level Estimated
06:25AM 57.3551 81.9643 293° West  Level Estimated
06:26AM 57.4013 81.7595 293° West  Level Estimated
06:27AM 57.4473 81.5541 293° West  Level Estimated
06:28AM 57.4929 81.3482 292° West  Level Estimated
06:29AM 57.5381 81.1418 292° West  Level Estimated
06:30AM 57.5830 80.9349 292° West  Level Estimated
06:31AM 57.6276 80.7274 292° West  Level Estimated
06:32AM 57.6719 80.5195 292° West  Level Estimated
06:33AM 57.7158 80.3111 292° West  Level Estimated
06:34AM 57.7593 80.1021 291° West  Level Estimated
06:35AM 57.8026 79.8927 291° West  Level Estimated
06:36AM 57.8454 79.6827 291° West  Level Estimated
06:37AM 57.8880 79.4723 291° West  Level Estimated
06:38AM 57.9301 79.2613 291° West  Level Estimated
06:39AM 57.9720 79.0499 291° West  Level Estimated
06:40AM 58.0134 78.8380 290° West  Level Estimated
06:41AM 58.0545 78.6255 290° West  Level Estimated
06:42AM 58.0953 78.4126 290° West  Level Estimated
06:43AM 58.1357 78.1992 290° West  Level Estimated
06:44AM 58.1758 77.9854 290° West  Level Estimated
06:45AM 58.2155 77.7710 289° West  Level Estimated
06:46AM 58.2548 77.5562 289° West  Level Estimated
06:47AM 58.2938 77.3409 289° West  Level Estimated
06:48AM 58.3324 77.1251 289° West  Level Estimated
06:49AM 58.3706 76.9089 289° West  Level Estimated
06:50AM 58.4085 76.6921 289° West  Level Estimated
06:51AM 58.4460 76.4750 288° West  Level Estimated
06:52AM 58.4832 76.2573 288° West  Level Estimated
06:53AM 58.5199 76.0392 288° West  Level Estimated
06:54AM 58.5563 75.8206 288° West  Level Estimated
06:55AM 58.5924 75.6016 288° West  Level Estimated
06:56AM 58.6280 75.3822 287° West  Level Estimated
06:57AM 58.6633 75.1623 287° West  Level Estimated
06:58AM 58.6982 74.9419 287° West  Level Estimated
06:59AM 58.7328 74.7211 287° West  Level Estimated
07:00AM 58.7669 74.4999 287° West  Level Estimated
07:00AM 60.8860 76.7670 286° West 415 478 32,000  Level FlightAware
07:01AM 58.8007 74.2783 286° West  Level Estimated
07:01AM 60.9150 76.6200 292° West 415 478 32,000  Level FlightAware
07:01AM 60.9430 76.4790 292° West 415 478 32,000  Level FlightAware
07:02AM 60.9760 76.3450 297° West 415 478 32,000  Level FlightAware
07:03AM 61.0190 76.1830 299° West 414 476 32,000  Level FlightAware
07:03AM 61.0600 76.0270 299° West 414 476 32,000  Level FlightAware
07:04AM 61.0950 75.8900 298° West 414 476 32,000  Level FlightAware
07:05AM 61.1260 75.7720 299° West 414 476 32,000  Level FlightAware
07:06AM 61.1640 75.6230 298° West 414 476 32,000  Level FlightAware
07:06AM 61.1950 75.5040 298° West 414 476 32,000  Level FlightAware
07:07AM 61.2250 75.3840 297° West 414 476 32,000  Level FlightAware
07:08AM 61.2560 75.2650 298° West 414 476 32,000  Level FlightAware
07:08AM 61.2940 75.1150 298° West 414 476 32,000  Level FlightAware
07:09AM 61.3240 74.9950 298° West 414 476 32,000  Level FlightAware
07:10AM 61.3550 74.8760 299° West 414 476 32,000  Level FlightAware
07:10AM 61.3860 74.7560 298° West 414 476 32,000  Level FlightAware
07:11AM 61.4160 74.6350 297° West 414 476 32,000  Level FlightAware
07:12AM 61.4540 74.4850 298° West 414 476 32,000  Level FlightAware
07:13AM 61.4850 74.3650 298° West 414 476 32,000  Level FlightAware
07:13AM 61.5160 74.2440 298° West 414 476 32,000  Level FlightAware
07:14AM 61.5460 74.1240 298° West 414 476 32,000 120 Level FlightAware
07:17AM 61.6137 73.4769 283° West  Level Estimated
07:18AM 61.6386 73.2305 282° West  Level Estimated
07:19AM 61.6631 72.9836 282° West  Level Estimated
07:20AM 61.6871 72.7364 282° West  Level Estimated
07:21AM 61.7106 72.4888 281° West  Level Estimated
07:22AM 61.7337 72.2408 281° West  Level Estimated
07:23AM 61.7564 71.9924 281° West  Level Estimated
07:24AM 61.7786 71.7437 281° West  Level Estimated
07:25AM 61.8004 71.4946 281° West  Level Estimated
07:26AM 61.8217 71.2452 280° West  Level Estimated
07:27AM 61.8426 70.9954 280° West  Level Estimated
07:28AM 61.8630 70.7453 280° West  Level Estimated
07:29AM 61.8830 70.4949 280° West  Level Estimated
07:30AM 61.9025 70.2441 279° West  Level Estimated
07:30AM 61.1490 70.2300 279° West 396 456 34,000  Level FlightAware
07:30AM 61.1360 70.1000 258° West 391 450 34,000  Level FlightAware
07:31AM 61.1180 69.9290 258° West 387 445 34,000  Level FlightAware
07:32AM 61.0870 69.6240 258° West 388 447 34,000  Level FlightAware
07:33AM 61.0650 69.4180 258° West 389 448 34,000  Level FlightAware
07:34AM 61.0490 69.2700 257° West 389 448 34,000  Level FlightAware
07:35AM 61.0330 69.1110 258° West 389 448 34,000  Level FlightAware
07:35AM 61.0160 68.9520 258° West 389 448 34,000  Level FlightAware
07:36AM 60.9990 68.7940 258° West 389 448 34,000  Level FlightAware
07:37AM 61.0650 68.6540 314° West 383 441 34,000  Level FlightAware
07:37AM 61.0740 68.5030 277° West 384 442 34,000  Level FlightAware
07:38AM 61.0840 68.3500 278° West 383 441 34,000  Level FlightAware
07:39AM 61.0930 68.1970 277° West 384 442 34,000  Level FlightAware
07:39AM 61.1010 68.0660 277° West 385 443 34,000  Level FlightAware
07:40AM 61.1090 67.9230 277° West 387 445 34,000  Level FlightAware
07:41AM 61.1210 67.7200 277° West 389 448 34,000  Level FlightAware
07:42AM 61.1280 67.5890 276° West 388 447 34,000  Level FlightAware
07:42AM 61.1370 67.4370 277° West 388 447 34,000  Level FlightAware
07:43AM 61.1470 67.2520 276° West 387 445 34,000  Level FlightAware
07:44AM 61.1570 67.0600 276° West 385 443 34,000  Level FlightAware
07:45AM 61.1640 66.9310 276° West 384 442 34,000  Level FlightAware
07:45AM 61.1730 66.7530 276° West 384 442 34,000  Level FlightAware
07:46AM 61.1790 66.6220 275° West 383 441 34,000  Level FlightAware
07:47AM 61.1870 66.4560 276° West 381 438 34,000  Level FlightAware
07:48AM 61.1940 66.3060 276° West 383 441 34,000  Level FlightAware
07:48AM 61.2010 66.1560 276° West 383 441 34,000  Level FlightAware
07:49AM 61.2060 66.0310 275° West 385 443 34,000  Level FlightAware
07:50AM 61.2170 65.7950 276° West 386 444 34,000  Level FlightAware
07:50AM 61.2200 65.7100 274° West 385 443 34,000  Level FlightAware
07:51AM 61.2270 65.5380 275° West 385 443 34,000  Level FlightAware
07:51AM 61.2300 65.4760 276° West 385 443 34,000  Level FlightAware
07:52AM 61.2350 65.3500 275° West 385 443 34,000  Level FlightAware
07:53AM 61.2410 65.2250 276° West 385 443 34,000  Level FlightAware
07:53AM 61.2450 65.1310 275° West 385 443 34,000  Level FlightAware
07:54AM 61.2490 65.0370 275° West 385 443 34,000  Level FlightAware
07:54AM 61.2530 64.9430 275° West 385 443 34,000  Level FlightAware
07:55AM 61.2560 64.8490 274° West 385 443 34,000  Level FlightAware
07:55AM 61.2600 64.7550 275° West 385 443 34,000  Level FlightAware
07:56AM 61.2670 64.5980 275° West 385 443 34,000  Level FlightAware
07:57AM 61.2720 64.4720 275° West 385 443 34,000  Level FlightAware
07:57AM 61.2780 64.3470 276° West 385 443 34,000  Level FlightAware
07:58AM 61.2840 64.1900 275° West 385 443 34,000  Level FlightAware
07:59AM 61.2920 64.0010 275° West 385 443 34,000  Level FlightAware
08:00AM 61.2960 63.9070 275° West 385 443 34,000  Level FlightAware
08:00AM 61.3010 63.7820 275° West 385 443 34,000  Level FlightAware
08:03AM 61.3217 63.2725 275° West  Level Estimated
08:04AM 61.3311 63.0237 275° West  Level Estimated
08:05AM 61.3400 62.7748 274° West  Level Estimated
08:06AM 61.3485 62.5257 274° West  Level Estimated
08:07AM 61.3565 62.2765 274° West  Level Estimated
08:08AM 61.3641 62.0272 274° West  Level Estimated
08:09AM 61.3713 61.7777 274° West  Level Estimated
08:10AM 61.3779 61.5282 273° West  Level Estimated
08:11AM 61.3841 61.2785 273° West  Level Estimated
08:12AM 61.3899 61.0288 273° West  Level Estimated
08:13AM 61.3952 60.7790 273° West  Level Estimated
08:14AM 61.4000 60.5290 272° West  Level Estimated
08:15AM 61.4044 60.2790 272° West  Level Estimated
08:16AM 61.4083 60.0290 272° West  Level Estimated
08:17AM 61.4117 59.7789 272° West  Level Estimated
08:18AM 61.4147 59.5287 272° West  Level Estimated
08:19AM 61.4173 59.2785 271° West  Level Estimated
08:20AM 61.4194 59.0283 271° West  Level Estimated
08:21AM 61.4210 58.7780 271° West  Level Estimated
08:22AM 61.4221 58.5277 271° West  Level Estimated
08:22AM 61.6280 58.5910 271° West 395 455 34,000  Level FlightAware
08:23AM 61.6340 58.4380 275° West 395 455 34,000  Level FlightAware
08:23AM 61.6400 58.3080 276° West 395 455 34,000  Level FlightAware
08:24AM 61.6450 58.1780 275° West 395 455 34,000  Level FlightAware
08:25AM 61.6590 57.9280 277° West 396 456 34,000  Level FlightAware
08:25AM 61.6660 57.7590 275° West 398 458 34,000  Level FlightAware
08:26AM 61.6720 57.6210 275° West 399 459 34,000  Level FlightAware
08:27AM 61.6790 57.4590 275° West 401 461 34,000  Level FlightAware
08:28AM 61.6870 57.2690 275° West 401 461 34,000  Level FlightAware
08:28AM 61.6950 57.0590 275° West 402 463 34,000  Level FlightAware
08:30AM 61.7030 56.8010 274° West 404 465 34,000  Level FlightAware
08:31AM 61.7040 56.5750 271° West 407 468 34,000  Level FlightAware
08:31AM 61.7060 56.4040 271° West 409 471 34,000  Level FlightAware
08:32AM 61.7080 56.2300 271° West 410 472 34,000  Level FlightAware
08:33AM 61.7100 55.9760 271° West 413 475 34,000  Level FlightAware
08:34AM 61.7110 55.7740 271° West 415 478 34,000  Level FlightAware
08:35AM 61.7120 55.5580 271° West 416 479 34,000  Level FlightAware
08:35AM 61.7120 55.4230 270° West 417 480 34,000  Level FlightAware
08:36AM 61.7130 55.2280 271° West 419 482 34,000  Level FlightAware
08:37AM 61.7130 55.0460 270° West 419 482 34,000  Level FlightAware
08:38AM 61.7120 54.8380 270° West 420 483 34,000  Level FlightAware
08:38AM 61.7120 54.6650 270° West 421 484 34,000  Level FlightAware
08:39AM 61.7110 54.4860 269° West 423 487 34,000  Level FlightAware
08:40AM 61.7100 54.3250 269° West 423 487 34,000  Level FlightAware
08:41AM 61.7090 54.1230 269° West 423 487 34,000  Level FlightAware
08:41AM 61.7080 53.9850 269° West 423 487 34,000  Level FlightAware
08:42AM 61.7060 53.7260 269° West 425 489 34,000  Level FlightAware
08:43AM 61.7040 53.5590 269° West 426 490 34,000  Level FlightAware
08:44AM 61.7020 53.3760 269° West 427 491 34,000  Level FlightAware
08:44AM 61.7000 53.2480 268° West 428 493 34,000  Level FlightAware
08:45AM 61.6980 53.0650 269° West 428 493 34,000  Level FlightAware
08:46AM 61.6950 52.8830 268° West 430 495 34,000  Level FlightAware
08:47AM 61.6900 52.6500 268° West 429 494 34,000  Level FlightAware
08:47AM 61.6880 52.4670 269° West 429 494 34,000  Level FlightAware
08:48AM 61.6840 52.2860 267° West 429 494 34,000  Level FlightAware
08:49AM 61.6800 52.1150 267° West 431 496 34,000  Level FlightAware
08:49AM 61.6770 51.9420 268° West 431 496 34,000  Level FlightAware
08:50AM 61.6730 51.7870 267° West 431 496 34,000  Level FlightAware
08:51AM 61.6680 51.5760 267° West 431 496 34,000  Level FlightAware
08:51AM 61.6640 51.4330 267° West 430 495 34,000  Level FlightAware
08:52AM 61.6590 51.2500 267° West 431 496 34,000  Level FlightAware
08:53AM 61.6530 51.0460 267° West 432 497 34,000  Level FlightAware
08:54AM 61.6490 50.9180 266° West 432 497 34,000  Level FlightAware
08:54AM 61.6430 50.7400 266° West 432 497 34,000  Level FlightAware
08:55AM 61.6390 50.6320 266° West 432 497 34,000  Level FlightAware
08:56AM 61.6350 50.4900 267° West 432 497 34,000  Level FlightAware
08:56AM 61.6300 50.3470 266° West 432 497 34,000  Level FlightAware
08:57AM 61.6250 50.2040 266° West 432 497 34,000  Level FlightAware
08:58AM 61.6200 50.0620 266° West 432 497 34,000  Level FlightAware
08:58AM 61.6160 49.9190 267° West 432 497 34,000  Level FlightAware
08:59AM 61.6100 49.7410 266° West 432 497 34,000  Level FlightAware
09:00AM 61.6050 49.5980 266° West 432 497 34,000  Level FlightAware
09:00AM 61.6000 49.4560 266° West 432 497 34,000  Level FlightAware
09:01AM 61.5950 49.3130 266° West 432 497 34,000  Level FlightAware
09:02AM 61.5910 49.1710 267° West 432 497 34,000  Level FlightAware
09:03AM 61.5850 48.9930 266° West 432 497 34,000  Level FlightAware
09:05AM 61.5477 48.5047 261° West  Level Estimated
09:06AM 61.5280 48.2568 261° West  Level Estimated
09:07AM 61.5079 48.0093 260° West  Level Estimated
09:08AM 61.4874 47.7621 260° West  Level Estimated
09:09AM 61.4664 47.5152 260° West  Level Estimated
09:10AM 61.4450 47.2687 260° West  Level Estimated
09:11AM 61.4231 47.0225 260° West  Level Estimated
09:12AM 61.4007 46.7767 259° West  Level Estimated
09:13AM 61.3780 46.5312 259° West  Level Estimated
09:14AM 61.3548 46.2860 259° West  Level Estimated
09:15AM 61.3311 46.0413 259° West  Level Estimated
09:16AM 61.3070 45.7969 259° West  Level Estimated
09:17AM 61.2825 45.5529 258° West  Level Estimated
09:18AM 61.2575 45.3092 258° West  Level Estimated
09:19AM 61.2321 45.0660 258° West  Level Estimated
09:20AM 61.2063 44.8232 258° West  Level Estimated
09:21AM 61.1800 44.5807 257° West  Level Estimated
09:22AM 61.1533 44.3387 257° West  Level Estimated
09:23AM 61.1262 44.0971 257° West  Level Estimated
09:24AM 61.0986 43.8559 257° West  Level Estimated
09:25AM 61.0706 43.6151 257° West  Level Estimated
09:26AM 61.0422 43.3747 256° West  Level Estimated
09:27AM 61.0134 43.1348 256° West  Level Estimated
09:28AM 60.9841 42.8954 256° West  Level Estimated
09:29AM 60.9544 42.6563 256° West  Level Estimated
09:30AM 60.9243 42.4177 256° West  Level Estimated
09:31AM 60.8937 42.1796 255° West  Level Estimated
09:32AM 60.8628 41.9419 255° West  Level Estimated
09:33AM 60.8314 41.7047 255° West  Level Estimated
09:34AM 60.7996 41.4680 255° West  Level Estimated
09:35AM 60.7674 41.2317 254° West  Level Estimated
09:36AM 60.7348 40.9959 254° West  Level Estimated
09:37AM 60.7018 40.7606 254° West  Level Estimated
09:38AM 60.6683 40.5258 254° West  Level Estimated
09:39AM 60.6344 40.2915 254° West  Level Estimated
09:40AM 60.6002 40.0576 253° West  Level Estimated
09:41AM 60.5655 39.8243 253° West  Level Estimated
09:42AM 60.5304 39.5914 253° West  Level Estimated
09:43AM 60.4949 39.3591 253° West  Level Estimated
09:44AM 60.4590 39.1273 253° West  Level Estimated
09:45AM 60.4227 38.8960 252° West  Level Estimated
09:46AM 60.3861 38.6652 252° West  Level Estimated
09:47AM 60.3490 38.4349 252° West  Level Estimated
09:48AM 60.3115 38.2052 252° West  Level Estimated
09:49AM 60.2736 37.9760 252° West  Level Estimated
09:50AM 60.2353 37.7473 251° West  Level Estimated
09:51AM 60.1967 37.5191 251° West  Level Estimated
09:52AM 60.1576 37.2915 251° West  Level Estimated
09:53AM 60.1181 37.0645 251° West  Level Estimated
09:54AM 60.0783 36.8380 251° West  Level Estimated
09:55AM 60.0381 36.6120 250° West  Level Estimated
09:56AM 59.9975 36.3866 250° West  Level Estimated
09:57AM 59.9565 36.1618 250° West  Level Estimated
09:58AM 59.9151 35.9375 250° West  Level Estimated
09:59AM 59.8734 35.7137 250° West  Level Estimated
10:00AM 59.8312 35.4906 249° West  Level Estimated
10:01AM 59.7887 35.2679 249° West  Level Estimated
10:02AM 59.7458 35.0459 249° West  Level Estimated
10:03AM 59.7026 34.8245 249° West  Level Estimated
10:03AM 59.9150 33.1840 249° West 472 543 34,000  Level FlightAware
10:04AM 59.6590 34.6036 249° West  Level Estimated
10:04AM 59.8950 33.0030 258° West 474 545 34,000  Level FlightAware
10:04AM 59.8750 32.8400 256° West 474 545 34,000  Level FlightAware
10:05AM 59.8540 32.6590 257° West 476 548 34,000  Level FlightAware
10:06AM 59.8310 32.4670 257° West 479 551 34,000  Level FlightAware
10:06AM 59.8140 32.3060 258° West 477 549 34,000  Level FlightAware
10:07AM 59.8000 32.1160 262° West 473 544 34,000  Level FlightAware
10:08AM 59.7870 31.9230 262° West 470 541 34,000  Level FlightAware
10:08AM 59.7750 31.7600 262° West 469 540 34,000  Level FlightAware
10:09AM 59.7640 31.6010 262° West 470 541 34,000  Level FlightAware
10:10AM 59.7440 31.3370 262° West 471 542 34,000  Level FlightAware
10:11AM 59.7310 31.1680 261° West 471 542 34,000  Level FlightAware
10:12AM 59.7140 30.9500 261° West 474 545 34,000  Level FlightAware
10:12AM 59.7030 30.8110 261° West 475 547 34,000  Level FlightAware
10:13AM 59.6870 30.6210 261° West 475 547 34,000  Level FlightAware
10:14AM 59.6730 30.4490 261° West 477 549 34,000  Level FlightAware
10:14AM 59.6590 30.2810 261° West 477 549 34,000  Level FlightAware
10:15AM 59.6430 30.0900 261° West 477 549 34,000  Level FlightAware
10:16AM 59.6290 29.9330 260° West 477 549 34,000  Level FlightAware
10:16AM 59.6120 29.7350 260° West 476 548 34,000  Level FlightAware
10:17AM 59.5930 29.5240 260° West 476 548 34,000  Level FlightAware
10:18AM 59.5780 29.3610 260° West 476 548 34,000  Level FlightAware
10:19AM 59.5620 29.1800 260° West 477 549 34,000  Level FlightAware
10:19AM 59.5450 29.0010 259° West 477 549 34,000  Level FlightAware
10:20AM 59.5240 28.7800 259° West 478 550 34,000  Level FlightAware
10:21AM 59.5040 28.5780 259° West 478 550 34,000  Level FlightAware
10:22AM 59.4870 28.4020 259° West 474 545 34,000  Level FlightAware
10:22AM 59.4720 28.2480 259° West 474 545 34,000  Level FlightAware
10:23AM 59.4490 28.0610 256° West 477 549 34,000  Level FlightAware
10:24AM 59.4030 27.8180 250° West 479 551 34,000  Level FlightAware
10:24AM 59.3760 27.6810 249° West 480 552 34,000  Level FlightAware
10:25AM 59.3340 27.4680 249° West 484 557 34,000  Level FlightAware
10:28AM 59.1913 27.0301 238° Southwest  Level Estimated
10:29AM 59.1265 26.8337 237° Southwest  Level Estimated
10:29AM 59.1460 26.5400 237° Southwest 487 560 34,000  Level FlightAware
10:31AM 59.0240 25.9550 236° Southwest 485 558 34,000  Level FlightAware
10:32AM 58.9820 26.0622 236° Southwest  Level Estimated
10:32AM 58.9790 25.7460 247° West 489 563 34,000  Level FlightAware
10:33AM 58.9440 25.5840 247° West 488 562 34,000  Level FlightAware
10:34AM 58.9090 25.4220 247° West 487 560 34,000  Level FlightAware
10:34AM 58.8700 25.2460 247° West 485 558 34,000  Level FlightAware
10:35AM 58.8350 25.0870 247° West 486 559 34,000  Level FlightAware
10:36AM 58.7950 24.9060 247° West 486 559 34,000  Level FlightAware
10:36AM 58.7590 24.7480 246° West 486 559 34,000  Level FlightAware
10:37AM 58.7190 24.5720 246° West 484 557 34,000  Level FlightAware
10:38AM 58.6830 24.4130 247° West 484 557 34,000  Level FlightAware
10:39AM 58.6480 24.2630 246° West 483 556 34,000  Level FlightAware
10:39AM 58.6060 24.0810 246° West 480 552 34,000  Level FlightAware
10:40AM 58.5710 23.9300 246° West 481 554 34,000  Level FlightAware
10:41AM 58.5330 23.7710 245° Southwest 480 552 34,000  Level FlightAware
10:41AM 58.4940 23.6040 246° West 478 550 34,000  Level FlightAware
10:42AM 58.4580 23.4520 246° West 478 550 34,000  Level FlightAware
10:43AM 58.4150 23.2730 245° Southwest 477 549 34,000  Level FlightAware
10:43AM 58.3780 23.1230 245° Southwest 477 549 34,000  Level FlightAware
10:44AM 58.3400 22.9670 245° Southwest 477 549 34,000  Level FlightAware
10:45AM 58.2980 22.7970 245° Southwest 477 549 34,000  Level FlightAware
10:46AM 58.2620 22.6490 245° Southwest 478 550 34,000  Level FlightAware
10:46AM 58.2190 22.4760 245° Southwest 478 550 34,000  Level FlightAware
10:47AM 58.1840 22.3240 246° West 474 545 34,000  Level FlightAware
10:48AM 58.1500 22.1730 247° West 475 547 34,000  Level FlightAware
10:48AM 58.1100 22.0030 246° West 474 545 34,000  Level FlightAware
10:49AM 58.0750 21.8520 246° West 471 542 34,000  Level FlightAware
10:50AM 58.0340 21.6810 246° West 470 541 34,000  Level FlightAware
10:50AM 57.9990 21.5350 246° West 470 541 34,000  Level FlightAware
10:51AM 57.9630 21.3860 246° West 469 540 34,000  Level FlightAware
10:52AM 57.9270 21.2370 246° West 467 537 34,000  Level FlightAware
10:53AM 57.8870 21.0700 246° West 466 536 34,000  Level FlightAware
10:53AM 57.8480 20.9110 245° Southwest 465 535 34,000  Level FlightAware
10:54AM 57.8100 20.7580 245° Southwest 466 536 34,000  Level FlightAware
10:55AM 57.7750 20.6160 245° Southwest 467 537 34,000  Level FlightAware
10:55AM 57.7340 20.4520 245° Southwest 467 537 34,000  Level FlightAware
10:56AM 57.6960 20.3020 245° Southwest 468 539 34,000  Level FlightAware
10:57AM 57.6390 20.1540 234° Southwest 478 550 34,000  Level FlightAware
10:57AM 57.5760 20.0500 222° Southwest 478 550 34,000  Level FlightAware
10:58AM 57.5000 19.9290 221° Southwest 476 548 34,000  Level FlightAware
10:59AM 57.4340 19.8230 221° Southwest 476 548 34,000  Level FlightAware
10:59AM 57.3740 19.7270 221° Southwest 475 547 34,000  Level FlightAware
11:00AM 57.2960 19.6040 220° Southwest 473 544 34,000  Level FlightAware
11:01AM 57.2210 19.4850 221° Southwest 473 544 34,000  Level FlightAware
11:02AM 57.1550 19.3810 221° Southwest 472 543 34,000  Level FlightAware
11:02AM 57.0820 19.2680 220° Southwest 471 542 34,000  Level FlightAware
11:03AM 57.0120 19.1590 220° Southwest 473 544 34,000  Level FlightAware
11:04AM 56.9370 19.0430 220° Southwest 474 545 34,000  Level FlightAware
11:04AM 56.8710 18.9420 220° Southwest 472 543 34,000  Level FlightAware
11:05AM 56.8040 18.8400 220° Southwest 471 542 34,000  Level FlightAware
11:06AM 56.7270 18.7230 220° Southwest 470 541 34,000  Level FlightAware
11:07AM 56.6600 18.6210 220° Southwest 469 540 34,000  Level FlightAware
11:07AM 56.5870 18.5110 220° Southwest 468 539 34,000  Level FlightAware
11:08AM 56.5200 18.4110 219° Southwest 467 537 34,000  Level FlightAware
11:09AM 56.4540 18.3130 219° Southwest 466 536 34,000  Level FlightAware
11:09AM 56.3770 18.1990 219° Southwest 466 536 34,000  Level FlightAware
11:10AM 56.3140 18.1060 219° Southwest 465 535 34,000  Level FlightAware
11:11AM 56.2380 17.9950 219° Southwest 464 534 34,000  Level FlightAware
11:11AM 56.1720 17.8970 220° Southwest 462 532 34,000  Level FlightAware
11:12AM 56.1050 17.7990 219° Southwest 461 531 34,000  Level FlightAware
11:13AM 56.0490 17.7190 219° Southwest 460 529 34,000  Level FlightAware
11:13AM 55.9720 17.6080 219° Southwest 461 531 34,000  Level FlightAware
11:14AM 55.9050 17.5120 219° Southwest 461 531 34,000  Level FlightAware
11:15AM 55.8390 17.4170 219° Southwest 462 532 34,000  Level FlightAware
11:16AM 55.7650 17.3120 219° Southwest 462 532 34,000  Level FlightAware
11:16AM 55.6980 17.2170 219° Southwest 461 531 34,000  Level FlightAware
11:17AM 55.6250 17.1130 219° Southwest 459 528 34,000  Level FlightAware
11:18AM 55.5570 17.0180 218° Southwest 460 529 34,000  Level FlightAware
11:18AM 55.4910 16.9260 218° Southwest 461 531 34,000  Level FlightAware
11:19AM 55.4200 16.8270 218° Southwest 464 534 34,000  Level FlightAware
11:20AM 55.3520 16.7330 218° Southwest 464 534 34,000  Level FlightAware
11:20AM 55.2780 16.6300 218° Southwest 466 536 34,000  Level FlightAware
11:21AM 55.2090 16.5360 218° Southwest 465 535 34,000  Level FlightAware
11:22AM 55.1280 16.4260 218° Southwest 465 535 34,000  Level FlightAware
11:23AM 55.0640 16.3380 218° Southwest 464 534 34,000  Level FlightAware
11:23AM 54.9930 16.2410 218° Southwest 464 534 34,000  Level FlightAware
11:24AM 54.9220 16.1460 218° Southwest 463 533 34,000  Level FlightAware
11:25AM 54.8500 16.0500 218° Southwest 463 533 34,000  Level FlightAware
11:25AM 54.7780 15.9540 218° Southwest 462 532 34,000  Level FlightAware
11:26AM 54.7060 15.8580 218° Southwest 461 531 34,000  Level FlightAware
11:27AM 54.6390 15.7690 218° Southwest 460 529 34,000  Level FlightAware
11:27AM 54.5640 15.6700 217° Southwest 459 528 34,000  Level FlightAware
11:28AM 54.5000 15.5860 217° Southwest 457 526 34,000  Level FlightAware
11:29AM 54.4190 15.4800 217° Southwest 456 525 34,000  Level FlightAware
11:30AM 54.3530 15.3950 217° Southwest 454 522 34,000  Level FlightAware
11:30AM 54.2860 15.3080 217° Southwest 453 521 34,000  Level FlightAware
11:31AM 54.2130 15.2130 217° Southwest 453 521 34,000  Level FlightAware
11:32AM 54.1480 15.1310 216° Southwest 454 522 34,000  Level FlightAware
11:32AM 54.0710 15.0320 217° Southwest 455 524 34,000  Level FlightAware
11:33AM 54.0000 14.9410 217° Southwest 457 526 34,000  Level FlightAware
11:34AM 53.9330 14.8560 217° Southwest 456 525 34,000  Level FlightAware
11:34AM 53.8610 14.7650 217° Southwest 455 524 34,000  Level FlightAware
11:35AM 53.7940 14.6820 216° Southwest 454 522 34,000  Level FlightAware
11:36AM 53.7140 14.5820 217° Southwest 455 524 34,000  Level FlightAware
11:37AM 53.6470 14.4980 217° Southwest 456 525 34,000  Level FlightAware
11:37AM 53.5790 14.4130 217° Southwest 456 525 34,000  Level FlightAware
11:38AM 53.5000 14.3300 212° Southwest 457 526 34,000  Level FlightAware
11:39AM 53.4270 14.2640 208° Southwest 459 528 34,000  Level FlightAware
11:39AM 53.3400 14.1860 208° Southwest 458 527 34,000  Level FlightAware
11:40AM 53.2660 14.1190 208° Southwest 456 525 34,000  Level FlightAware
11:41AM 53.1910 14.0520 208° Southwest 457 526 34,000  Level FlightAware
11:41AM 53.1170 13.9850 209° Southwest 457 526 34,000  Level FlightAware
11:42AM 53.0350 13.9130 208° Southwest 456 525 34,000  Level FlightAware
11:43AM 52.9600 13.8460 208° Southwest 456 525 34,000  Level FlightAware
11:44AM 52.8800 13.7760 208° Southwest 457 526 34,000  Level FlightAware
11:44AM 52.8030 13.7080 208° Southwest 457 526 34,000  Level FlightAware
11:45AM 52.7310 13.6460 208° Southwest 456 525 34,000  Level FlightAware
11:46AM 52.6480 13.5730 208° Southwest 457 526 34,000  Level FlightAware
11:46AM 52.5670 13.5030 208° Southwest 458 527 34,000  Level FlightAware
11:47AM 52.4880 13.4350 208° Southwest 457 526 34,000  Level FlightAware
11:48AM 52.4100 13.3680 208° Southwest 457 526 34,000  Level FlightAware
11:48AM 52.3350 13.3040 208° Southwest 458 527 34,000  Level FlightAware
11:49AM 52.2530 13.2340 208° Southwest 456 525 34,000  Level FlightAware
11:50AM 52.1740 13.1670 207° Southwest 455 524 34,000  Level FlightAware
11:51AM 52.0930 13.0980 208° Southwest 455 524 34,000  Level FlightAware
11:51AM 52.0180 13.0350 207° Southwest 454 522 34,000  Level FlightAware
11:52AM 51.9430 12.9720 207° Southwest 454 522 34,000  Level FlightAware
11:53AM 51.8580 12.9010 207° Southwest 455 524 34,000  Level FlightAware
11:53AM 51.7950 12.8490 207° Southwest 456 525 34,000  Level FlightAware
11:54AM 51.7100 12.7760 208° Southwest 456 525 34,000 -360 Level FlightAware
11:56AM 51.5320 12.4010 233° Southwest 457 526 32,900 -960 Descending FlightAware
11:59AM 51.4031 12.0470 240° Southwest  Level Estimated
12:00PM 51.3423 11.8818 240° Southwest  Level Estimated
12:00PM 51.2800 11.8090 240° Southwest 456 525 28,600  Level FlightAware
12:01PM 51.2330 11.6990 236° Southwest 452 520 27,700 -1,620 Descending FlightAware
12:01PM 51.1850 11.5870 236° Southwest 444 511 26,500 -1,800 Descending FlightAware
12:02PM 51.1310 11.4640 235° Southwest 440 506 25,200 -1,740 Descending FlightAware
12:03PM 51.0800 11.3460 236° Southwest 438 504 23,900 -1,680 Descending FlightAware
12:03PM 51.0340 11.2400 235° Southwest 435 501 22,900 -1,320 Descending FlightAware
12:04PM 50.9870 11.1190 238° Southwest 434 499 22,100 -660 Descending FlightAware
12:05PM 50.9500 11.0070 242° Southwest 427 491 22,000 -120 Descending FlightAware
12:06PM 50.9010 10.8550 243° Southwest 428 493 22,000  Level FlightAware
12:06PM 50.8660 10.7470 243° Southwest 429 494 22,000  Level FlightAware
12:07PM 50.8150 10.5890 243° Southwest 430 495 22,000 -1,200 Level FlightAware
12:10PM 50.6853 10.2412 240° Southwest  Level Estimated
12:11PM 50.6241 10.0788 239° Southwest  Level Estimated
12:12PM 50.5628 9.9169 239° Southwest  Level Estimated
12:12PM 50.5880 9.9120 239° Southwest 389 448 15,700  Level FlightAware
12:12PM 50.5520 9.8060 242° Southwest 388 447 14,900 -2,280 Descending FlightAware
12:14PM 50.4720 9.6420 233° Southwest 364 419 11,400 -2,040 Descending FlightAware
12:14PM 50.4140 9.5630 221° Southwest 328 377 11,000 -720 Descending FlightAware
12:16PM 50.2940 9.3960 240° Southwest 269 310 9,500 -840 Descending FlightAware
12:17PM 50.2845 9.2179 240° Southwest  Level Estimated
12:17PM 50.2660 9.3560 222° Southwest 265 305 9,000  Level FlightAware
12:17PM 50.2400 9.3180 223° Southwest 255 293 8,500 -1,080 Descending FlightAware
12:18PM 50.2320 9.2970 239° Southwest 258 297 8,200 -1,200 Descending FlightAware
12:18PM 50.2170 9.2400 248° West 262 302 7,600 -1,140 Descending FlightAware
12:19PM 50.2070 9.1990 249° West 260 299 7,200 -1,020 Descending FlightAware
12:19PM 50.1940 9.1430 250° West 258 297 6,700 -1,020 Descending FlightAware
12:19PM 50.1820 9.0980 247° West 257 296 6,300 -1,020 Descending FlightAware
12:20PM 50.1670 9.0480 245° Southwest 261 300 5,800 -1,080 Descending FlightAware
12:20PM 50.1610 9.0210 251° West 264 304 5,500 -1,080 Descending FlightAware
12:21PM 50.1500 8.9720 251° West 264 304 5,100 -900 Descending FlightAware
12:21PM 50.1430 8.9450 248° West 255 293 4,900 -720 Descending FlightAware
12:21PM 50.1310 8.8930 250° West 242 278 4,600 -540 Descending FlightAware
12:22PM 50.1260 8.8720 250° West 233 268 4,500 -480 Descending FlightAware
12:22PM 50.1170 8.8330 250° West 205 236 4,300 -600 Descending FlightAware
12:23PM 50.1080 8.7930 251° West 189 217 4,000 -720 Descending FlightAware
12:23PM 50.1030 8.7750 247° West 185 213 3,800 -900 Descending FlightAware
12:23PM 50.0960 8.7440 251° West 174 200 3,400 -1,020 Descending FlightAware
12:24PM 50.0880 8.7090 250° West 163 188 2,900 -1,020 Descending FlightAware
12:24PM 50.0810 8.6830 247° West 155 178 2,500 -1,080 Descending FlightAware
12:24PM 50.0780 8.6670 254° West 152 175 2,200 -960 Descending FlightAware
12:25PM 50.0700 8.6360 248° West 148 170 1,800 -840 Descending FlightAware
12:25PM 50.0670 8.6210 253° West 150 173 1,600 -900 Descending FlightAware
12:26PM 50.0610 8.5960 250° West 148 170 1,200 -840 Descending FlightAware
12:26PM 50.0600 8.5910 253° West 147 169 1,200 -480 Level FlightAware
12:27PM 50.0450 8.5290 249° West 145 167 600 -540 Descending FlightAware
12:30PM 50.0264 8.5431 154° Southeast  Level Estimated